Time;durP1;ratioP1;P1;durP2;ratioP2;P2;SDS_P1;SDS_P2;PMS_P1;PMS_P2;Temp;Humidity;BMP_temperature;BMP_pressure;BME280_temperature;BME280_humidity;BME280_pressure;Samples;Min_cycle;Max_cycle;Signal;HPM_P1;HPM_P2
2021/04/18 00:01:37;;;;;;;;;;;11.00;99.90;;;;;;5030402;28;19925;-62
2021/04/18 00:04:04;;;;;;;;;;;11.00;99.90;;;;;;5031822;28;19925;-63
2021/04/18 00:06:31;;;;;;;;;;;11.00;99.90;;;;;;5035926;28;19947;-62
2021/04/18 00:08:58;;;;;;;;;;;11.00;99.90;;;;;;5035513;28;19983;-63
2021/04/18 00:11:25;;;;;;;;;;;11.00;99.90;;;;;;5035965;28;19963;-63
2021/04/18 00:13:51;;;;;;;;;;;10.90;99.90;;;;;;5035416;28;19936;-64
2021/04/18 00:16:18;;;;;;;;;;;10.90;99.90;;;;;;5035360;28;19925;-63
2021/04/18 00:18:44;;;;;;;;;;;10.90;99.90;;;;;;5035304;28;19929;-62
2021/04/18 00:21:11;;;;;;;;;;;10.90;99.90;;;;;;5034210;28;19929;-63
2021/04/18 00:23:37;;;;;;;;;;;10.90;99.90;;;;;;5032229;28;19932;-63
2021/04/18 00:26:07;;;;;;;;;;;10.90;99.90;;;;;;5035008;28;20008;-63
2021/04/18 00:28:33;;;;;;;;;;;10.90;99.90;;;;;;5035597;28;20260;-63
2021/04/18 00:30:59;;;;;;;;;;;10.90;99.90;;;;;;5035096;28;20263;-63
2021/04/18 00:33:26;;;;;;;;;;;10.80;99.90;;;;;;5030245;28;19925;-63
2021/04/18 00:35:52;;;;;;;;;;;10.80;99.90;;;;;;5033370;28;19925;-63
2021/04/18 00:38:21;;;;;;;;;;;10.80;99.90;;;;;;5034774;28;19933;-63
2021/04/18 00:40:47;;;;;;;;;;;10.80;99.90;;;;;;5035153;28;19925;-62
2021/04/18 00:43:14;;;;;;;;;;;10.80;99.90;;;;;;5031790;28;20267;-63
2021/04/18 00:45:41;;;;;;;;;;;10.70;99.90;;;;;;5035069;28;20271;-64
2021/04/18 00:48:07;;;;;;;;;;;10.70;99.90;;;;;;5034675;28;19925;-63
2021/04/18 00:50:36;;;;;;;;;;;10.70;99.90;;;;;;5035310;28;20380;-63
2021/04/18 00:53:04;;;;;;;;;;;10.70;99.90;;;;;;5034919;28;19991;-63
2021/04/18 00:55:31;;;;;;;;;;;10.70;99.90;;;;;;5034980;28;19924;-63
2021/04/18 00:57:57;;;;;;;;;;;10.70;99.90;;;;;;5035075;28;19925;-64
2021/04/18 01:00:25;;;;;;;;;;;10.60;99.90;;;;;;5034605;28;19929;-64
2021/04/18 01:02:52;;;;;;;;;;;10.60;99.90;;;;;;5034731;28;19924;-63
2021/04/18 01:05:18;;;;;;;;;;;10.60;99.90;;;;;;5034474;28;20314;-64
2021/04/18 01:07:45;;;;;;;;;;;10.50;99.90;;;;;;5034847;28;20275;-64
2021/04/18 01:10:12;;;;;;;;;;;10.50;99.90;;;;;;5034322;28;19940;-62
2021/04/18 01:12:39;;;;;;;;;;;10.50;99.90;;;;;;5034593;28;19925;-63
2021/04/18 01:15:06;;;;;;;;;;;10.50;99.90;;;;;;5033173;28;19970;-63
2021/04/18 01:17:34;;;;;;;;;;;10.50;99.90;;;;;;5034623;28;19932;-63
2021/04/18 01:20:00;;;;;;;;;;;10.50;99.90;;;;;;5034451;28;19948;-63
2021/04/18 01:22:27;;;;;;;;;;;10.40;99.90;;;;;;5033033;28;20693;-63
2021/04/18 01:24:54;;;;;;;;;;;10.40;99.90;;;;;;5034695;28;19925;-63
2021/04/18 01:27:22;;;;;;;;;;;10.40;99.90;;;;;;5034350;28;19959;-62
2021/04/18 01:29:48;;;;;;;;;;;10.50;99.90;;;;;;5034144;28;19925;-64
2021/04/18 01:32:15;;;;;;;;;;;10.50;99.90;;;;;;5033804;28;19940;-63
2021/04/18 01:34:44;;;;;;;;;;;10.60;99.90;;;;;;5033171;28;19925;-64
2021/04/18 01:37:12;;;;;;;;;;;10.50;99.90;;;;;;5032239;28;20023;-63
2021/04/18 01:39:39;;;;;;;;;;;10.50;99.90;;;;;;5034270;28;19924;-63
2021/04/18 01:42:06;;;;;;;;;;;10.50;99.90;;;;;;5032964;28;20368;-64
2021/04/18 01:44:32;;;;;;;;;;;10.60;99.90;;;;;;5034195;28;19979;-63
2021/04/18 01:46:59;;;;;;;;;;;10.60;99.90;;;;;;5034128;28;19983;-63
2021/04/18 01:49:25;;;;;;;;;;;10.60;99.90;;;;;;5033719;28;19925;-64
2021/04/18 01:51:51;;;;;;;;;;;10.60;99.90;;;;;;5033996;28;19987;-64
2021/04/18 01:54:18;;;;;;;;;;;10.60;99.90;;;;;;5033488;28;20249;-63
2021/04/18 01:56:45;;;;;;;;;;;10.60;99.90;;;;;;5034133;28;19925;-64
2021/04/18 01:59:11;;;;;;;;;;;10.60;99.90;;;;;;5033307;28;20325;-63
2021/04/18 02:01:38;;;;;;;;;;;10.60;99.90;;;;;;5031790;28;20363;-64
2021/04/18 02:04:17;;;;;;;;;;;10.60;99.90;;;;;;5025666;28;20311;-63
2021/04/18 02:06:43;;;;;;;;;;;10.60;99.90;;;;;;5033833;28;19935;-63
2021/04/18 02:09:09;;;;;;;;;;;10.60;99.90;;;;;;5033380;28;20007;-63
2021/04/18 02:11:36;;;;;;;;;;;10.60;99.90;;;;;;5033589;28;19936;-63
2021/04/18 02:14:03;;;;;;;;;;;10.60;99.90;;;;;;5033226;28;19925;-64
2021/04/18 02:16:30;;;;;;;;;;;10.60;99.90;;;;;;5033481;28;19936;-64
2021/04/18 02:18:56;;;;;;;;;;;10.60;99.90;;;;;;5033206;28;19936;-65
2021/04/18 02:21:22;;;;;;;;;;;10.60;99.90;;;;;;5033151;28;20350;-63
2021/04/18 02:23:49;;;;;;;;;;;10.60;99.90;;;;;;5033226;28;19936;-63
2021/04/18 02:26:15;;;;;;;;;;;10.60;99.90;;;;;;5033086;28;19948;-64
2021/04/18 02:28:41;;;;;;;;;;;10.60;99.90;;;;;;5033518;28;19987;-64
2021/04/18 02:31:11;;;;;;;;;;;10.60;99.90;;;;;;5028998;28;19991;-63
2021/04/18 02:33:37;;;;;;;;;;;10.60;99.90;;;;;;5027682;28;19929;-64
2021/04/18 02:36:04;;;;;;;;;;;10.60;99.90;;;;;;5030102;28;20364;-63
2021/04/18 02:38:30;;;;;;;;;;;10.50;99.90;;;;;;5033169;28;19936;-63
2021/04/18 02:40:57;;;;;;;;;;;10.50;99.90;;;;;;5036220;28;19932;-63
2021/04/18 02:43:23;;;;;;;;;;;10.50;99.90;;;;;;5029906;28;19936;-64
2021/04/18 02:45:50;;;;;;;;;;;10.50;99.90;;;;;;5031245;28;19933;-63
2021/04/18 02:48:17;;;;;;;;;;;10.50;99.90;;;;;;5024680;28;19925;-64
2021/04/18 02:50:43;;;;;;;;;;;10.40;99.90;;;;;;5032990;28;19929;-64
2021/04/18 02:53:09;;;;;;;;;;;10.40;99.90;;;;;;5032509;28;19929;-63
2021/04/18 02:55:36;;;;;;;;;;;10.40;99.90;;;;;;5032746;28;20359;-63
2021/04/18 02:58:02;;;;;;;;;;;10.40;99.90;;;;;;5032531;28;19944;-63
2021/04/18 03:00:28;;;;;;;;;;;10.30;99.90;;;;;;5032796;28;19936;-63
2021/04/18 03:02:55;;;;;;;;;;;10.30;99.90;;;;;;5032408;28;19929;-63
2021/04/18 03:05:22;;;;;;;;;;;10.20;99.90;;;;;;5032839;28;20275;-64
2021/04/18 03:07:48;;;;;;;;;;;10.20;99.90;;;;;;5032761;28;19955;-64
2021/04/18 03:10:15;;;;;;;;;;;10.20;99.90;;;;;;5032525;28;20896;-63
2021/04/18 03:12:41;;;;;;;;;;;10.20;99.90;;;;;;5032717;28;19936;-64
2021/04/18 03:15:08;;;;;;;;;;;10.20;99.90;;;;;;5032352;28;19925;-64
2021/04/18 03:17:35;;;;;;;;;;;10.20;99.90;;;;;;5032488;28;19929;-62
2021/04/18 03:20:01;;;;;;;;;;;10.20;99.90;;;;;;5032166;28;20368;-64
2021/04/18 03:22:28;;;;;;;;;;;10.20;99.90;;;;;;5031965;28;19945;-63
2021/04/18 03:24:54;;;;;;;;;;;10.20;99.90;;;;;;5032259;28;20350;-64
2021/04/18 03:27:21;;;;;;;;;;;10.10;99.90;;;;;;5032713;28;19933;-63
2021/04/18 03:29:47;;;;;;;;;;;10.10;99.90;;;;;;5032358;28;20362;-64
2021/04/18 03:32:14;;;;;;;;;;;10.10;99.90;;;;;;5029117;28;19987;-62
2021/04/18 03:34:40;;;;;;;;;;;10.10;99.90;;;;;;5029197;28;20356;-64
2021/04/18 03:37:08;;;;;;;;;;;10.10;99.90;;;;;;5032018;28;19925;-63
2021/04/18 03:39:35;;;;;;;;;;;10.00;99.90;;;;;;5034821;28;19996;-64
2021/04/18 03:42:01;;;;;;;;;;;10.00;99.90;;;;;;5035345;28;19955;-63
2021/04/18 03:44:28;;;;;;;;;;;10.00;99.90;;;;;;5036388;28;19926;-63
2021/04/18 03:46:54;;;;;;;;;;;10.00;99.90;;;;;;5035532;28;19925;-62
2021/04/18 03:49:20;;;;;;;;;;;10.10;99.90;;;;;;5036208;28;19936;-63
2021/04/18 03:51:47;;;;;;;;;;;10.00;99.90;;;;;;5036476;28;19925;-63
2021/04/18 03:54:14;;;;;;;;;;;10.00;99.90;;;;;;5035496;28;19933;-63
2021/04/18 03:56:41;;;;;;;;;;;10.00;99.90;;;;;;5036293;28;19925;-64
2021/04/18 03:59:07;;;;;;;;;;;10.00;99.90;;;;;;5036013;28;19925;-64
2021/04/18 04:01:33;;;;;;;;;;;10.00;99.90;;;;;;5035972;28;19932;-63
2021/04/18 04:04:00;;;;;;;;;;;10.00;99.90;;;;;;5035700;28;19926;-63
2021/04/18 04:06:26;;;;;;;;;;;10.10;99.90;;;;;;5036044;28;19925;-64
2021/04/18 04:08:53;;;;;;;;;;;10.10;99.90;;;;;;5035794;28;19933;-63
2021/04/18 04:11:19;;;;;;;;;;;10.10;99.90;;;;;;5035882;28;19925;-64
2021/04/18 04:13:46;;;;;;;;;;;10.00;99.90;;;;;;5035668;28;20287;-63
2021/04/18 04:16:13;;;;;;;;;;;10.10;99.90;;;;;;5035358;28;20275;-62
2021/04/18 04:18:40;;;;;;;;;;;10.10;99.90;;;;;;5035832;28;19925;-64
2021/04/18 04:21:06;;;;;;;;;;;10.00;99.90;;;;;;5035158;28;19940;-63
2021/04/18 04:23:32;;;;;;;;;;;10.00;99.90;;;;;;5032460;28;19925;-64
2021/04/18 04:25:59;;;;;;;;;;;10.00;99.90;;;;;;5035156;28;19979;-63
2021/04/18 04:28:25;;;;;;;;;;;10.00;99.90;;;;;;5035520;28;20268;-63
2021/04/18 04:30:52;;;;;;;;;;;10.00;99.90;;;;;;5035398;28;19932;-63
2021/04/18 04:33:18;;;;;;;;;;;10.00;99.90;;;;;;5030277;28;20367;-64
2021/04/18 04:35:45;;;;;;;;;;;10.00;99.90;;;;;;5033936;28;19928;-64
2021/04/18 04:38:11;;;;;;;;;;;9.90;99.90;;;;;;5034987;28;19936;-63
2021/04/18 04:40:37;;;;;;;;;;;9.90;99.90;;;;;;5034643;28;19936;-64
2021/04/18 04:43:04;;;;;;;;;;;9.90;99.90;;;;;;5031481;28;19925;-64
2021/04/18 04:45:30;;;;;;;;;;;9.90;99.90;;;;;;5035392;28;19948;-62
2021/04/18 04:47:57;;;;;;;;;;;9.90;99.90;;;;;;5024840;28;19929;-64
2021/04/18 04:50:24;;;;;;;;;;;9.90;99.90;;;;;;5033661;28;19936;-63
2021/04/18 04:52:50;;;;;;;;;;;10.00;99.90;;;;;;5035014;28;19937;-63
2021/04/18 04:55:16;;;;;;;;;;;9.90;99.90;;;;;;5034549;28;19925;-63
2021/04/18 04:57:43;;;;;;;;;;;9.90;99.90;;;;;;5033157;28;19925;-63
2021/04/18 05:00:09;;;;;;;;;;;9.90;99.90;;;;;;5034491;28;20438;-64
2021/04/18 05:02:36;;;;;;;;;;;9.90;99.90;;;;;;5034607;28;19925;-62
2021/04/18 05:05:04;;;;;;;;;;;9.90;99.90;;;;;;5034549;28;19983;-62
2021/04/18 05:07:30;;;;;;;;;;;9.90;99.90;;;;;;5034950;28;20290;-63
2021/04/18 05:09:56;;;;;;;;;;;9.90;99.90;;;;;;5034532;28;19936;-63
2021/04/18 05:12:23;;;;;;;;;;;9.90;99.90;;;;;;5034572;28;19925;-63
2021/04/18 05:14:49;;;;;;;;;;;9.90;99.90;;;;;;5034612;28;19929;-63
2021/04/18 05:17:15;;;;;;;;;;;9.90;99.90;;;;;;5034016;28;20008;-63
2021/04/18 05:19:42;;;;;;;;;;;10.00;99.90;;;;;;5034656;28;19937;-64
2021/04/18 05:22:09;;;;;;;;;;;10.00;99.90;;;;;;5033873;28;19960;-64
2021/04/18 05:24:35;;;;;;;;;;;9.90;99.90;;;;;;5034831;28;19933;-63
2021/04/18 05:27:01;;;;;;;;;;;9.90;99.90;;;;;;5034000;28;19936;-64
2021/04/18 05:29:28;;;;;;;;;;;9.90;99.90;;;;;;5034309;28;19925;-63
2021/04/18 05:31:55;;;;;;;;;;;9.90;99.90;;;;;;5034229;28;20283;-63
2021/04/18 05:34:21;;;;;;;;;;;10.00;99.90;;;;;;5017871;28;20020;-64
2021/04/18 05:36:48;;;;;;;;;;;10.00;99.90;;;;;;5031159;28;20348;-63
2021/04/18 05:39:15;;;;;;;;;;;10.00;99.90;;;;;;5033728;28;19975;-63
2021/04/18 05:41:41;;;;;;;;;;;10.00;99.90;;;;;;5029335;28;19925;-63
2021/04/18 05:44:13;;;;;;;;;;;10.00;99.90;;;;;;5033527;28;19936;-63
2021/04/18 05:46:39;;;;;;;;;;;10.10;99.90;;;;;;5028267;28;19926;-63
2021/04/18 05:49:06;;;;;;;;;;;10.00;99.90;;;;;;5033534;28;19936;-63
2021/04/18 05:51:32;;;;;;;;;;;10.10;99.90;;;;;;5034081;28;19939;-63
2021/04/18 05:53:58;;;;;;;;;;;10.10;99.90;;;;;;5033940;28;19936;-63
2021/04/18 05:56:26;;;;;;;;;;;10.10;99.90;;;;;;5033140;28;19990;-63
2021/04/18 05:58:52;;;;;;;;;;;10.10;99.90;;;;;;5034102;28;19932;-63
2021/04/18 06:01:23;;;;;;;;;;;10.20;99.90;;;;;;5032962;28;19925;-63
2021/04/18 06:03:49;;;;;;;;;;;10.20;99.90;;;;;;5033474;28;20175;-62
2021/04/18 06:06:15;;;;;;;;;;;10.20;99.90;;;;;;5033177;28;19925;-63
2021/04/18 06:08:42;;;;;;;;;;;10.30;99.90;;;;;;5033658;28;19936;-63
2021/04/18 06:11:08;;;;;;;;;;;10.20;99.90;;;;;;5033248;28;19929;-63
2021/04/18 06:13:35;;;;;;;;;;;10.20;99.90;;;;;;5033994;28;19925;-63
2021/04/18 06:16:02;;;;;;;;;;;10.30;99.90;;;;;;5033323;28;19956;-62
2021/04/18 06:18:28;;;;;;;;;;;10.30;99.90;;;;;;5033124;28;19925;-63
2021/04/18 06:20:54;;;;;;;;;;;10.30;99.90;;;;;;5033394;28;20143;-63
2021/04/18 06:23:22;;;;;;;;;;;10.30;99.90;;;;;;5032767;28;19925;-63
2021/04/18 06:25:48;;;;;;;;;;;10.30;99.90;;;;;;5033357;28;19961;-63
2021/04/18 06:28:14;;;;;;;;;;;10.30;99.90;;;;;;5032710;28;19925;-63
2021/04/18 06:30:41;;;;;;;;;;;10.20;99.90;;;;;;5022655;28;19925;-63
2021/04/18 06:33:08;;;;;;;;;;;10.30;99.90;;;;;;5014114;28;19937;-63
2021/04/18 06:35:34;;;;;;;;;;;10.20;99.90;;;;;;5008272;28;19925;-63
2021/04/18 06:38:00;;;;;;;;;;;10.30;99.90;;;;;;5021705;28;19936;-63
2021/04/18 06:40:27;;;;;;;;;;;10.30;99.90;;;;;;5028335;28;19972;-64
2021/04/18 06:42:54;;;;;;;;;;;10.30;99.90;;;;;;5027657;28;19925;-63
2021/04/18 06:45:21;;;;;;;;;;;10.30;99.90;;;;;;5032385;28;19925;-63
2021/04/18 06:47:48;;;;;;;;;;;10.30;99.90;;;;;;5019199;28;19937;-64
2021/04/18 06:50:14;;;;;;;;;;;10.30;99.90;;;;;;5013606;28;19937;-63
2021/04/18 06:52:40;;;;;;;;;;;10.30;99.90;;;;;;5028417;28;20015;-63
2021/04/18 06:55:08;;;;;;;;;;;10.30;99.90;;;;;;5029577;28;19925;-63
2021/04/18 06:57:34;;;;;;;;;;;10.30;99.90;;;;;;5024459;28;20374;-63
2021/04/18 07:00:01;;;;;;;;;;;10.40;99.90;;;;;;5031953;28;20175;-64
2021/04/18 07:02:28;;;;;;;;;;;10.30;99.90;;;;;;5011388;28;19935;-64
2021/04/18 07:04:59;;;;;;;;;;;10.30;99.90;;;;;;4999194;28;19933;-63
2021/04/18 07:07:29;;;;;;;;;;;10.30;99.90;;;;;;5022569;28;20343;-64
2021/04/18 07:09:55;;;;;;;;;;;10.30;99.90;;;;;;5020715;28;19929;-64
2021/04/18 07:12:25;;;;;;;;;;;10.30;99.90;;;;;;5022228;28;19944;-64
2021/04/18 07:14:52;;;;;;;;;;;10.30;99.90;;;;;;5023642;28;20270;-63
2021/04/18 07:17:18;;;;;;;;;;;10.30;99.90;;;;;;5029117;28;19925;-64
2021/04/18 07:19:49;;;;;;;;;;;10.30;99.90;;;;;;5032725;28;19925;-64
2021/04/18 07:22:16;;;;;;;;;;;10.30;99.90;;;;;;5031359;28;19976;-64
2021/04/18 07:24:50;;;;;;;;;;;10.30;99.90;;;;;;5017477;28;19926;-64
2021/04/18 07:27:16;;;;;;;;;;;10.30;99.90;;;;;;5011737;28;19925;-64
2021/04/18 07:29:42;;;;;;;;;;;10.30;99.90;;;;;;5028300;28;19925;-64
2021/04/18 07:32:19;;;;;;;;;;;10.30;99.90;;;;;;5010530;28;19945;-64
2021/04/18 07:34:45;;;;;;;;;;;10.30;99.90;;;;;;4996813;28;20000;-64
2021/04/18 07:37:13;;;;;;;;;;;10.40;99.90;;;;;;5011176;28;19925;-64
2021/04/18 07:39:44;;;;;;;;;;;10.40;99.90;;;;;;5012669;28;19926;-64
2021/04/18 07:42:25;;;;;;;;;;;10.40;99.90;;;;;;5013951;28;19941;-64
2021/04/18 07:44:53;;;;;;;;;;;10.40;99.90;;;;;;5012138;28;20000;-62
2021/04/18 07:47:19;;;;;;;;;;;10.40;99.90;;;;;;5006605;28;20272;-64
2021/04/18 07:49:45;;;;;;;;;;;10.40;99.90;;;;;;5012397;28;19987;-64
2021/04/18 07:52:12;;;;;;;;;;;10.40;99.90;;;;;;5012426;28;19933;-64
2021/04/18 07:54:40;;;;;;;;;;;10.40;99.90;;;;;;5012388;28;20268;-64
2021/04/18 07:57:08;;;;;;;;;;;10.40;99.90;;;;;;5012593;28;19937;-64
2021/04/18 07:59:34;;;;;;;;;;;10.40;99.90;;;;;;5011981;28;19926;-64
2021/04/18 08:02:01;;;;;;;;;;;10.40;99.90;;;;;;5012455;28;19926;-64
2021/04/18 08:04:27;;;;;;;;;;;10.50;99.90;;;;;;5012470;28;20367;-64
2021/04/18 08:06:54;;;;;;;;;;;10.50;99.90;;;;;;5012289;28;20082;-64
2021/04/18 08:09:21;;;;;;;;;;;10.50;99.90;;;;;;5012705;28;19925;-64
2021/04/18 08:12:02;;;;;;;;;;;10.50;99.90;;;;;;5012092;28;19925;-64
2021/04/18 08:14:29;;;;;;;;;;;10.50;99.90;;;;;;5012275;28;19949;-64
2021/04/18 08:17:02;;;;;;;;;;;10.50;99.90;;;;;;5012381;28;20398;-64
2021/04/18 08:19:28;;;;;;;;;;;10.50;99.90;;;;;;5011014;28;19925;-64
2021/04/18 08:21:54;;;;;;;;;;;10.50;99.90;;;;;;5011737;28;19926;-64
2021/04/18 08:24:31;;;;;;;;;;;10.50;99.90;;;;;;5012604;28;19925;-62
2021/04/18 08:26:59;;;;;;;;;;;10.50;99.90;;;;;;5015540;28;20677;-64
2021/04/18 08:29:25;;;;;;;;;;;10.50;99.90;;;;;;5015778;28;19940;-64
2021/04/18 08:31:54;;;;;;;;;;;10.50;99.90;;;;;;5015016;28;19933;-63
2021/04/18 08:34:21;;;;;;;;;;;10.50;99.90;;;;;;5002676;28;19975;-63
2021/04/18 08:36:49;;;;;;;;;;;10.50;99.90;;;;;;5012318;28;19926;-63
2021/04/18 08:39:20;;;;;;;;;;;10.50;99.90;;;;;;5015689;28;19925;-63
2021/04/18 08:41:48;;;;;;;;;;;10.60;99.90;;;;;;5014305;28;19925;-64
2021/04/18 08:44:16;;;;;;;;;;;10.60;99.90;;;;;;5015129;28;19930;-64
2021/04/18 08:46:42;;;;;;;;;;;10.60;99.90;;;;;;5013083;28;19947;-64
2021/04/18 08:49:10;;;;;;;;;;;10.60;99.90;;;;;;5033131;28;19933;-64
2021/04/18 08:51:36;;;;;;;;;;;10.60;99.90;;;;;;5032717;28;20083;-64
2021/04/18 08:54:03;;;;;;;;;;;10.60;99.90;;;;;;5032053;28;19925;-62
2021/04/18 08:56:45;;;;;;;;;;;10.70;99.90;;;;;;5032794;28;19925;-63
2021/04/18 08:59:12;;;;;;;;;;;10.70;99.90;;;;;;5021491;28;19925;-63
2021/04/18 09:01:38;;;;;;;;;;;10.70;99.90;;;;;;5034461;28;19940;-63
2021/04/18 09:04:10;;;;;;;;;;;10.70;99.90;;;;;;5019273;28;20360;-62
2021/04/18 09:06:37;;;;;;;;;;;10.70;99.90;;;;;;5017553;28;20313;-63
2021/04/18 09:09:04;;;;;;;;;;;10.70;99.90;;;;;;5028490;28;20272;-64
2021/04/18 09:11:35;;;;;;;;;;;10.70;99.90;;;;;;5033141;28;19925;-64
2021/04/18 09:14:01;;;;;;;;;;;10.70;99.90;;;;;;5034795;28;19944;-64
2021/04/18 09:16:30;;;;;;;;;;;10.70;99.90;;;;;;5016366;28;19952;-64
2021/04/18 09:19:11;;;;;;;;;;;10.70;99.90;;;;;;5028482;28;19925;-63
2021/04/18 09:21:38;;;;;;;;;;;10.70;99.90;;;;;;5034578;28;19990;-64
2021/04/18 09:24:06;;;;;;;;;;;10.70;99.90;;;;;;5019685;28;20303;-64
2021/04/18 09:26:32;;;;;;;;;;;10.70;99.90;;;;;;5030748;28;19987;-62
2021/04/18 09:29:05;;;;;;;;;;;10.70;99.90;;;;;;5025947;28;19925;-61
2021/04/18 09:31:31;;;;;;;;;;;10.70;99.90;;;;;;5013207;28;19925;-62
2021/04/18 09:34:01;;;;;;;;;;;10.70;99.90;;;;;;5013942;28;19925;-64
2021/04/18 09:36:28;;;;;;;;;;;10.80;99.90;;;;;;5008767;28;19925;-64
2021/04/18 09:38:54;;;;;;;;;;;10.80;99.90;;;;;;5027878;28;19936;-63
2021/04/18 09:41:22;;;;;;;;;;;10.80;99.90;;;;;;5017322;28;19926;-62
2021/04/18 09:43:54;;;;;;;;;;;10.80;99.90;;;;;;5012707;28;19926;-63
2021/04/18 09:46:21;;;;;;;;;;;10.80;99.90;;;;;;5030719;28;20011;-63
2021/04/18 09:48:56;;;;;;;;;;;10.80;99.90;;;;;;5034082;28;19925;-63
2021/04/18 09:51:24;;;;;;;;;;;10.80;99.90;;;;;;5032864;28;21531;-63
2021/04/18 09:54:01;;;;;;;;;;;10.90;99.90;;;;;;5034018;28;19929;-63
2021/04/18 09:56:28;;;;;;;;;;;10.90;99.90;;;;;;5021090;28;19933;-63
2021/04/18 09:58:54;;;;;;;;;;;11.00;99.90;;;;;;5033929;28;19925;-63
2021/04/18 10:01:24;;;;;;;;;;;11.10;99.90;;;;;;5033376;28;19963;-63
2021/04/18 10:03:51;;;;;;;;;;;11.20;99.90;;;;;;5033864;28;20017;-63
2021/04/18 10:06:17;;;;;;;;;;;11.30;99.90;;;;;;5033799;28;20327;-63
2021/04/18 10:08:52;;;;;;;;;;;11.30;99.90;;;;;;5033411;28;19932;-63
2021/04/18 10:11:20;;;;;;;;;;;11.40;99.90;;;;;;5033733;28;19929;-64
2021/04/18 10:13:50;;;;;;;;;;;11.50;99.90;;;;;;5033343;28;19928;-64
2021/04/18 10:16:17;;;;;;;;;;;11.60;99.90;;;;;;5033522;28;19932;-62
2021/04/18 10:19:05;;;;;;;;;;;11.70;99.90;;;;;;5033245;28;20248;-64
2021/04/18 10:21:31;;;;;;;;;;;11.80;99.90;;;;;;5032617;28;19936;-62
2021/04/18 10:23:58;;;;;;;;;;;11.90;99.90;;;;;;5030247;28;19925;-62
2021/04/18 10:26:25;;;;;;;;;;;12.00;99.90;;;;;;5033150;28;19986;-62
2021/04/18 10:28:53;;;;;;;;;;;12.00;99.90;;;;;;5033075;28;19932;-62
2021/04/18 10:31:22;;;;;;;;;;;12.10;99.90;;;;;;5026114;28;19929;-62
2021/04/18 10:33:48;;;;;;;;;;;12.20;99.90;;;;;;5023302;28;19925;-63
2021/04/18 10:36:15;;;;;;;;;;;12.30;99.90;;;;;;5026647;28;19940;-62
2021/04/18 10:38:41;;;;;;;;;;;12.40;99.90;;;;;;5032659;28;20031;-63
2021/04/18 10:41:08;;;;;;;;;;;12.40;99.90;;;;;;5032935;28;19925;-62
2021/04/18 10:43:35;;;;;;;;;;;12.60;99.90;;;;;;5029992;28;19929;-62
2021/04/18 10:46:02;;;;;;;;;;;12.70;99.90;;;;;;5033010;28;19933;-62
2021/04/18 10:48:28;;;;;;;;;;;12.70;99.90;;;;;;5031840;28;20049;-62
2021/04/18 10:50:55;;;;;;;;;;;12.90;99.90;;;;;;5032905;28;19925;-62
2021/04/18 10:53:21;;;;;;;;;;;13.00;99.90;;;;;;5032744;28;19925;-62
2021/04/18 10:55:48;;;;;;;;;;;13.10;99.90;;;;;;5032576;28;19933;-63
2021/04/18 10:58:15;;;;;;;;;;;13.20;99.90;;;;;;5032741;28;19929;-63
2021/04/18 11:00:42;;;;;;;;;;;13.30;99.90;;;;;;5032565;28;19975;-62
2021/04/18 11:03:09;;;;;;;;;;;13.40;99.90;;;;;;5031734;28;19948;-62
2021/04/18 11:05:35;;;;;;;;;;;13.50;99.90;;;;;;5032438;28;19926;-63
2021/04/18 11:08:02;;;;;;;;;;;13.50;99.90;;;;;;5033002;28;19925;-63
2021/04/18 11:10:28;;;;;;;;;;;13.50;99.90;;;;;;5032280;28;19933;-63
2021/04/18 11:12:56;;;;;;;;;;;13.60;99.90;;;;;;5032656;28;19933;-63
2021/04/18 11:15:23;;;;;;;;;;;13.60;99.90;;;;;;5032756;28;19940;-62
2021/04/18 11:17:50;;;;;;;;;;;13.70;99.90;;;;;;5031784;28;20011;-63
2021/04/18 11:20:18;;;;;;;;;;;13.70;99.90;;;;;;5032639;28;20351;-64
2021/04/18 11:22:45;;;;;;;;;;;13.80;99.90;;;;;;5031247;28;20122;-63
2021/04/18 11:25:12;;;;;;;;;;;13.70;99.90;;;;;;5029545;28;19936;-63
2021/04/18 11:27:39;;;;;;;;;;;13.80;99.90;;;;;;5032334;28;20278;-64
2021/04/18 11:30:06;;;;;;;;;;;13.80;99.90;;;;;;5031398;28;19927;-64
2021/04/18 11:32:32;;;;;;;;;;;13.80;99.90;;;;;;5026383;28;20010;-64
2021/04/18 11:34:59;;;;;;;;;;;13.80;99.90;;;;;;5021611;28;19933;-63
2021/04/18 11:37:27;;;;;;;;;;;13.80;99.90;;;;;;5031574;28;20279;-64
2021/04/18 11:39:53;;;;;;;;;;;13.90;99.90;;;;;;5033965;28;20610;-64
2021/04/18 11:42:20;;;;;;;;;;;13.90;99.90;;;;;;5030741;28;19977;-63
2021/04/18 11:44:49;;;;;;;;;;;13.90;99.90;;;;;;5031901;28;19925;-64
2021/04/18 11:47:15;;;;;;;;;;;13.90;99.90;;;;;;5032349;28;19933;-63
2021/04/18 11:49:42;;;;;;;;;;;14.00;99.90;;;;;;5031825;28;19947;-63
2021/04/18 11:52:08;;;;;;;;;;;14.00;99.90;;;;;;5032107;28;19925;-64
2021/04/18 11:54:35;;;;;;;;;;;14.00;99.90;;;;;;5032070;28;19925;-63
2021/04/18 11:57:01;;;;;;;;;;;14.00;99.90;;;;;;5032607;28;19925;-63
2021/04/18 11:59:29;;;;;;;;;;;14.00;99.90;;;;;;5032770;28;19925;-62
2021/04/18 12:01:56;;;;;;;;;;;14.10;99.90;;;;;;5035717;28;19925;-63
2021/04/18 12:04:22;;;;;;;;;;;14.10;99.90;;;;;;5036043;28;20335;-64
2021/04/18 12:06:49;;;;;;;;;;;14.20;99.90;;;;;;5035440;28;20358;-64
2021/04/18 12:09:15;;;;;;;;;;;14.20;99.90;;;;;;5035465;28;19925;-64
2021/04/18 12:11:42;;;;;;;;;;;14.30;99.90;;;;;;5035753;28;19925;-64
2021/04/18 12:14:09;;;;;;;;;;;14.30;99.90;;;;;;5035847;28;19925;-61
2021/04/18 12:16:35;;;;;;;;;;;14.40;99.90;;;;;;5035419;28;19925;-63
2021/04/18 12:19:04;;;;;;;;;;;14.40;99.90;;;;;;5034748;28;19926;-62
2021/04/18 12:21:30;;;;;;;;;;;14.50;99.90;;;;;;5035439;28;19924;-63
2021/04/18 12:23:57;;;;;;;;;;;14.50;99.90;;;;;;5031897;28;19925;-63
2021/04/18 12:26:23;;;;;;;;;;;14.50;99.90;;;;;;5035751;28;19987;-63
2021/04/18 12:28:50;;;;;;;;;;;14.60;99.90;;;;;;5035204;28;19925;-64
2021/04/18 12:31:17;;;;;;;;;;;14.60;99.90;;;;;;5035419;28;19925;-62
2021/04/18 12:33:44;;;;;;;;;;;14.70;99.90;;;;;;5015527;28;19925;-63
2021/04/18 12:36:10;;;;;;;;;;;14.70;99.90;;;;;;5014067;28;19925;-63
2021/04/18 12:38:37;;;;;;;;;;;14.70;99.90;;;;;;5034829;28;19932;-62
2021/04/18 12:41:03;;;;;;;;;;;14.80;99.90;;;;;;5037221;28;19997;-63
2021/04/18 12:43:29;;;;;;;;;;;14.80;99.90;;;;;;5028081;28;19987;-63
2021/04/18 12:45:59;;;;;;;;;;;14.80;99.90;;;;;;5007396;28;19925;-62
2021/04/18 12:48:26;;;;;;;;;;;14.80;99.90;;;;;;5030441;28;19925;-63
2021/04/18 12:50:52;;;;;;;;;;;14.80;99.90;;;;;;5018643;28;20242;-63
2021/04/18 12:53:22;;;;;;;;;;;14.80;99.90;;;;;;5028288;28;19968;-63
2021/04/18 12:55:48;;;;;;;;;;;14.80;99.90;;;;;;5025466;28;19936;-63
2021/04/18 12:58:16;;;;;;;;;;;14.80;99.90;;;;;;5031884;28;19937;-63
2021/04/18 13:00:42;;;;;;;;;;;14.90;99.90;;;;;;5025246;28;20284;-63
2021/04/18 13:03:10;;;;;;;;;;;14.90;99.90;;;;;;5034694;28;20305;-63
2021/04/18 13:05:36;;;;;;;;;;;14.90;99.90;;;;;;5032903;28;19925;-63
2021/04/18 13:08:03;;;;;;;;;;;15.00;99.90;;;;;;5028627;28;20287;-63
2021/04/18 13:10:31;;;;;;;;;;;15.00;99.90;;;;;;5034300;28;20344;-63
2021/04/18 13:12:59;;;;;;;;;;;15.00;99.90;;;;;;5033702;28;19926;-63
2021/04/18 13:15:26;;;;;;;;;;;15.00;99.90;;;;;;5033576;28;19925;-63
2021/04/18 13:17:52;;;;;;;;;;;15.00;99.90;;;;;;5016806;28;19979;-63
2021/04/18 13:20:24;;;;;;;;;;;15.10;99.90;;;;;;5029107;28;19925;-64
2021/04/18 13:22:52;;;;;;;;;;;15.10;99.90;;;;;;5026246;28;19979;-63
2021/04/18 13:25:18;;;;;;;;;;;15.10;99.90;;;;;;5016433;28;19974;-63
2021/04/18 13:27:45;;;;;;;;;;;15.20;99.90;;;;;;5016877;28;19929;-63
2021/04/18 13:30:14;;;;;;;;;;;15.30;99.90;;;;;;5022480;28;19929;-63
2021/04/18 13:32:41;;;;;;;;;;;15.30;99.90;;;;;;5007623;28;19937;-64
2021/04/18 13:35:09;;;;;;;;;;;15.30;99.90;;;;;;5013466;28;20340;-64
2021/04/18 13:37:36;;;;;;;;;;;15.40;99.90;;;;;;5012550;28;19961;-64
2021/04/18 13:40:03;;;;;;;;;;;15.50;99.90;;;;;;5017155;28;19991;-64
2021/04/18 13:42:29;;;;;;;;;;;15.50;99.80;;;;;;5028928;28;19925;-64
2021/04/18 13:44:56;;;;;;;;;;;15.50;99.20;;;;;;5030805;28;19960;-62
2021/04/18 13:47:23;;;;;;;;;;;15.50;99.20;;;;;;5034097;28;19968;-63
2021/04/18 13:49:50;;;;;;;;;;;15.60;99.10;;;;;;5033492;28;19957;-63
2021/04/18 13:52:16;;;;;;;;;;;15.60;98.80;;;;;;5025699;28;19925;-63
2021/04/18 13:54:43;;;;;;;;;;;15.50;97.60;;;;;;5025445;28;19926;-63
2021/04/18 13:57:12;;;;;;;;;;;15.60;97.50;;;;;;5029694;28;19933;-63
2021/04/18 13:59:45;;;;;;;;;;;15.60;97.70;;;;;;5016746;28;19925;-63
2021/04/18 14:02:11;;;;;;;;;;;15.60;97.50;;;;;;5011882;28;19929;-63
2021/04/18 14:04:37;;;;;;;;;;;15.70;97.50;;;;;;5014439;28;20036;-63
2021/04/18 14:07:07;;;;;;;;;;;15.60;97.40;;;;;;5028818;28;20331;-63
2021/04/18 14:09:33;;;;;;;;;;;15.60;97.40;;;;;;5028690;28;19979;-63
2021/04/18 14:12:01;;;;;;;;;;;15.70;97.40;;;;;;5019455;28;20340;-64
2021/04/18 14:14:27;;;;;;;;;;;15.70;97.30;;;;;;5027499;28;20257;-63
2021/04/18 14:16:53;;;;;;;;;;;15.70;97.30;;;;;;5002850;28;20364;-63
2021/04/18 14:19:21;;;;;;;;;;;15.80;97.40;;;;;;5017992;28;19925;-63